Terminal Aerodrome Forecast
Issued by NWS Twin Cities, MN

Home | Current Version | Previous Version | Graphics & Text | Print | Product List | Glossary On
Versions: 1 2 3 4 5 6 7 8 9 10 11 12 13 14 15 16 17 18 19 20 21 22 23 24 25 26 27 28
000
FTUS43 KMPX 011739
TAFMSP
TAF
KMSP 011739Z 0118/0224 21009KT P6SM SCT030 BKN070
     FM012000 20010KT P6SM SCT070
     FM020300 18005KT P6SM FEW070
     FM021600 20011KT P6SM SKC=

USA.gov is the U.S. government's official web portal to all federal, state and local government web resources and services.